createdAt,value
2022-09-07T00:01:52.878Z,98035.56
2022-09-07T00:03:58.455Z,98032.38
2022-09-07T00:06:09.128Z,98028.06
2022-09-07T00:08:14.197Z,98021.78
2022-09-07T00:10:19.209Z,98022.88
2022-09-07T00:12:24.233Z,98018.72
2022-09-07T00:14:28.887Z,98020.78
2022-09-07T00:16:36.581Z,98025.13
2022-09-07T00:18:45.817Z,98030.25
2022-09-07T00:21:00.820Z,98037.09
2022-09-07T00:23:05.867Z,98043.50
2022-09-07T00:25:11.905Z,98038.19
2022-09-07T00:27:16.937Z,98040.00
2022-09-07T00:29:21.874Z,98041.13
2022-09-07T00:31:27.073Z,98040.28
2022-09-07T00:33:34.746Z,98032.75
2022-09-07T00:35:43.402Z,98036.63
2022-09-07T00:37:49.418Z,98042.47
2022-09-07T00:39:54.971Z,98044.41
2022-09-07T00:41:59.958Z,98038.13
2022-09-07T00:44:34.682Z,98044.13
2022-09-07T00:46:39.723Z,98041.63
2022-09-07T00:48:53.804Z,98047.03
2022-09-07T00:51:04.480Z,98049.69
2022-09-07T00:53:13.790Z,98054.16
2022-09-07T00:55:20.071Z,98053.59
2022-09-07T00:57:28.265Z,98047.69
2022-09-07T00:59:37.771Z,98045.22
2022-09-07T01:01:43.125Z,98044.63
2022-09-07T01:03:54.121Z,98051.16
2022-09-07T01:06:02.328Z,98058.91
2022-09-07T01:08:07.950Z,98045.78
2022-09-07T01:10:13.241Z,98039.53
2022-09-07T01:12:18.230Z,98040.50
2022-09-07T01:14:25.747Z,98037.75
2022-09-07T01:16:44.030Z,98040.25
2022-09-07T01:18:59.804Z,98041.47
2022-09-07T01:21:25.386Z,98044.69
2022-09-07T01:24:07.067Z,98041.22
2022-09-07T01:26:40.813Z,98043.88
2022-09-07T01:28:54.924Z,98035.09
2022-09-07T01:31:01.990Z,98036.03
2022-09-07T01:33:18.864Z,98036.88
2022-09-07T01:35:29.334Z,98044.13
2022-09-07T01:37:43.967Z,98033.94
2022-09-07T01:39:54.622Z,98038.91
2022-09-07T01:42:04.242Z,98043.22
2022-09-07T01:44:15.533Z,98043.22
2022-09-07T01:46:27.756Z,98045.03
2022-09-07T01:48:36.655Z,98038.72
2022-09-07T01:50:45.615Z,98049.31
2022-09-07T01:52:56.820Z,98045.69
2022-09-07T01:55:06.429Z,98040.41
2022-09-07T01:57:18.311Z,98027.19
2022-09-07T01:59:32.239Z,98027.69
2022-09-07T02:01:43.228Z,98020.03
2022-09-07T02:03:51.653Z,98022.69
2022-09-07T02:06:02.136Z,98017.28
2022-09-07T02:08:13.022Z,98019.91
2022-09-07T02:10:21.492Z,98028.53
2022-09-07T02:12:35.073Z,98021.47
2022-09-07T02:14:51.936Z,98031.19
2022-09-07T02:17:03.420Z,98027.44
2022-09-07T02:19:13.377Z,98030.91
2022-09-07T02:21:22.302Z,98037.06
2022-09-07T02:23:31.118Z,98037.44
2022-09-07T02:25:40.661Z,98039.25
2022-09-07T02:27:50.254Z,98042.00
2022-09-07T02:29:58.082Z,98044.09
2022-09-07T02:32:03.133Z,98037.41
2022-09-07T02:34:07.978Z,98036.09
2022-09-07T02:36:16.143Z,98033.47
2022-09-07T02:38:22.023Z,98034.41
2022-09-07T02:40:26.947Z,98041.41
2022-09-07T02:42:35.087Z,98043.88
2022-09-07T02:44:45.669Z,98043.88
2022-09-07T02:47:08.388Z,98048.09
2022-09-07T02:49:28.057Z,98045.59
2022-09-07T02:51:39.897Z,98045.44
2022-09-07T02:54:08.717Z,98051.56
2022-09-07T02:56:26.095Z,98051.13
2022-09-07T02:58:37.736Z,98055.56
2022-09-07T03:00:47.802Z,98049.44
2022-09-07T03:03:02.962Z,98051.25
2022-09-07T03:05:14.842Z,98052.34
2022-09-07T03:07:23.625Z,98059.81
2022-09-07T03:09:33.896Z,98060.31
2022-09-07T03:11:39.914Z,98052.91
2022-09-07T03:13:45.062Z,98056.53
2022-09-07T03:15:53.620Z,98042.84
2022-09-07T03:18:03.239Z,98039.25
2022-09-07T03:20:08.927Z,98030.47
2022-09-07T03:22:16.717Z,98033.97
2022-09-07T03:24:21.780Z,98032.88
2022-09-07T03:26:27.502Z,98034.22
2022-09-07T03:28:32.462Z,98041.31
2022-09-07T03:30:37.839Z,98033.38
2022-09-07T03:32:43.014Z,98028.09
2022-09-07T03:34:50.451Z,98024.16
2022-09-07T03:36:55.478Z,98030.16
2022-09-07T03:39:01.252Z,98041.31
2022-09-07T03:41:09.060Z,98041.88
2022-09-07T03:43:14.074Z,98043.69
2022-09-07T03:45:19.538Z,98038.28
2022-09-07T03:47:24.503Z,98036.47
2022-09-07T03:49:29.444Z,98043.44
2022-09-07T03:51:37.021Z,98032.75
2022-09-07T03:53:44.052Z,98024.38
2022-09-07T03:55:59.038Z,98032.56
2022-09-07T03:58:03.946Z,98021.66
2022-09-07T04:00:10.013Z,98020.84
2022-09-07T04:02:18.183Z,98017.31
2022-09-07T04:04:23.294Z,98017.31
2022-09-07T04:06:28.603Z,98024.41
2022-09-07T04:08:38.550Z,98016.88
2022-09-07T04:10:43.659Z,98016.50
2022-09-07T04:12:49.498Z,98019.66
2022-09-07T04:14:54.628Z,98020.38
2022-09-07T04:16:59.693Z,98025.53
2022-09-07T04:19:04.925Z,98034.75
2022-09-07T04:21:10.345Z,98048.66
2022-09-07T04:23:15.612Z,98054.31
2022-09-07T04:25:23.458Z,98067.66
2022-09-07T04:27:28.470Z,98071.53
2022-09-07T04:29:33.669Z,98062.19
2022-09-07T04:31:39.337Z,98057.72
2022-09-07T04:33:45.108Z,98060.75
2022-09-07T04:35:50.052Z,98061.78
2022-09-07T04:37:55.021Z,98053.63
2022-09-07T04:40:00.000Z,98049.63
2022-09-07T04:42:07.835Z,98051.66
2022-09-07T04:44:16.736Z,98051.03
2022-09-07T04:46:24.173Z,98053.88
2022-09-07T04:48:29.370Z,98056.72
2022-09-07T04:50:34.844Z,98057.16
2022-09-07T04:52:40.034Z,98065.53
2022-09-07T04:54:45.180Z,98077.66
2022-09-07T04:56:50.163Z,98078.19
2022-09-07T04:58:57.664Z,98080.41
2022-09-07T05:01:04.787Z,98085.38
2022-09-07T05:03:09.874Z,98084.44
2022-09-07T05:05:14.754Z,98085.25
2022-09-07T05:07:19.734Z,98081.31
2022-09-07T05:09:24.756Z,98073.47
2022-09-07T05:11:30.878Z,98064.06
2022-09-07T05:13:35.820Z,98077.63
2022-09-07T05:15:43.396Z,98071.66
2022-09-07T05:17:50.258Z,98078.25
2022-09-07T05:19:55.262Z,98068.72
2022-09-07T05:22:00.357Z,98068.44
2022-09-07T05:24:06.961Z,98073.22
2022-09-07T05:26:12.787Z,98077.03
2022-09-07T05:28:19.596Z,98074.56
2022-09-07T05:32:52.871Z,98074.63
2022-09-07T05:34:58.234Z,98068.03
2022-09-07T05:37:04.101Z,98065.53
2022-09-07T05:39:09.881Z,98059.38
2022-09-07T05:41:16.381Z,98060.00
2022-09-07T05:43:22.014Z,98060.56
2022-09-07T05:45:26.994Z,98071.00
2022-09-07T05:47:32.482Z,98065.69
2022-09-07T05:49:40.240Z,98064.53
2022-09-07T05:51:45.167Z,98065.19
2022-09-07T05:53:50.774Z,98072.75
2022-09-07T05:55:55.703Z,98078.34
2022-09-07T05:58:00.788Z,98060.44
2022-09-07T06:00:06.345Z,98064.84
2022-09-07T06:02:17.604Z,98062.22
2022-09-07T06:04:22.707Z,98058.34
2022-09-07T06:06:30.135Z,98073.78
2022-09-07T06:08:36.274Z,98076.16
2022-09-07T06:12:49.395Z,98076.59
2022-09-07T06:14:54.806Z,98087.19
2022-09-07T06:16:59.468Z,98080.06
2022-09-07T06:19:07.815Z,98070.66
2022-09-07T06:21:14.122Z,98065.75
2022-09-07T06:23:21.835Z,98068.47
2022-09-07T06:25:26.826Z,98067.91
2022-09-07T06:27:31.821Z,98072.50
2022-09-07T06:29:36.849Z,98071.56
2022-09-07T06:34:07.328Z,98055.31
2022-09-07T06:36:15.734Z,98053.38
2022-09-07T06:38:23.205Z,98062.31
2022-09-07T06:40:28.208Z,98070.38
2022-09-07T06:42:33.114Z,98067.34
2022-09-07T06:44:38.114Z,98072.22
2022-09-07T06:49:08.246Z,98070.84
2022-09-07T06:51:15.351Z,98074.16
2022-09-07T06:53:35.613Z,98074.75
2022-09-07T06:55:50.273Z,98077.25
2022-09-07T06:57:55.706Z,98071.81
2022-09-07T07:00:00.636Z,98071.81
2022-09-07T07:02:05.470Z,98072.78
2022-09-07T07:04:10.472Z,98075.13
2022-09-07T07:06:16.280Z,98067.19
2022-09-07T07:08:21.316Z,98058.25
2022-09-07T07:10:26.345Z,98050.84
2022-09-07T07:14:44.888Z,98050.03
2022-09-07T07:16:50.225Z,98058.38
2022-09-07T07:18:58.082Z,98065.22
2022-09-07T07:21:05.714Z,98061.03
2022-09-07T07:23:11.255Z,98049.97
2022-09-07T07:25:16.615Z,98051.38
2022-09-07T07:27:21.658Z,98056.22
2022-09-07T07:29:29.139Z,98048.25
2022-09-07T07:31:36.349Z,98056.06
2022-09-07T07:33:41.659Z,98058.56
2022-09-07T07:35:46.644Z,98062.88
2022-09-07T07:40:23.488Z,98069.03
2022-09-07T07:42:30.359Z,98069.19
2022-09-07T07:44:37.923Z,98067.50
2022-09-07T07:46:43.188Z,98065.72
2022-09-07T07:48:51.239Z,98064.72
2022-09-07T07:51:04.362Z,98071.25
2022-09-07T07:55:44.187Z,98071.66
2022-09-07T07:57:50.166Z,98075.16
2022-09-07T07:59:57.682Z,98073.88
2022-09-07T08:02:05.001Z,98085.00
2022-09-07T08:04:10.477Z,98089.19
2022-09-07T08:06:17.422Z,98093.91
2022-09-07T08:08:23.070Z,98095.03
2022-09-07T08:10:29.700Z,98091.81
2022-09-07T08:12:34.548Z,98090.91
2022-09-07T08:14:41.087Z,98087.97
2022-09-07T08:16:49.337Z,98087.63
2022-09-07T08:18:54.199Z,98098.50
2022-09-07T08:21:03.085Z,98104.72
2022-09-07T08:23:08.231Z,98108.44
2022-09-07T08:25:13.015Z,98113.34
2022-09-07T08:27:21.446Z,98115.09
2022-09-07T08:29:27.234Z,98122.03
2022-09-07T08:31:32.119Z,98120.59
2022-09-07T08:33:41.343Z,98122.78
2022-09-07T08:35:46.362Z,98119.69
2022-09-07T08:37:50.855Z,98118.38
2022-09-07T08:39:55.708Z,98105.16
2022-09-07T08:42:14.455Z,98111.56
2022-09-07T08:44:24.992Z,98114.81
2022-09-07T08:46:33.858Z,98103.25
2022-09-07T08:48:43.075Z,98106.63
2022-09-07T08:50:56.350Z,98108.94
2022-09-07T08:53:05.849Z,98108.97
2022-09-07T08:55:17.428Z,98108.19
2022-09-07T08:57:29.709Z,98106.25
2022-09-07T08:59:43.551Z,98108.47
2022-09-07T09:02:27.008Z,98102.84
2022-09-07T09:04:25.512Z,98100.03
2022-09-07T09:06:42.431Z,98101.22
2022-09-07T09:09:04.629Z,98102.75
2022-09-07T09:11:14.840Z,98098.09
2022-09-07T09:13:22.569Z,98094.66
2022-09-07T09:15:38.757Z,98093.84
2022-09-07T09:17:50.082Z,98086.72
2022-09-07T09:20:05.744Z,98077.56
2022-09-07T09:22:16.307Z,98085.72
2022-09-07T09:24:22.343Z,98088.25
2022-09-07T09:26:29.149Z,98081.94
2022-09-07T09:28:34.176Z,98074.28
2022-09-07T09:30:39.078Z,98074.44
2022-09-07T09:32:45.387Z,98082.47
2022-09-07T09:35:04.048Z,98084.34
2022-09-07T09:37:14.083Z,98080.50
2022-09-07T09:39:28.869Z,98078.84
2022-09-07T09:41:39.620Z,98072.66
2022-09-07T09:43:47.980Z,98071.34
2022-09-07T09:48:23.222Z,98068.97
2022-09-07T09:53:04.238Z,98071.63
2022-09-07T09:55:33.697Z,98074.31
2022-09-07T10:00:27.969Z,98070.25
2022-09-07T10:05:00.048Z,98080.25
2022-09-07T10:07:20.964Z,98083.16
2022-09-07T10:09:29.017Z,98075.13
2022-09-07T10:14:21.966Z,98063.16
2022-09-07T10:16:41.321Z,98059.97
2022-09-07T10:18:58.668Z,98053.94
2022-09-07T10:21:31.291Z,98053.44
2022-09-07T10:23:38.858Z,98055.41
2022-09-07T10:25:47.562Z,98054.59
2022-09-07T10:28:04.397Z,98057.06
2022-09-07T10:30:16.458Z,98046.06
2022-09-07T10:32:35.006Z,98043.75
2022-09-07T10:34:51.507Z,98037.44
2022-09-07T10:37:04.482Z,98037.22
2022-09-07T10:39:17.786Z,98045.91
2022-09-07T10:41:31.098Z,98037.28
2022-09-07T10:43:45.625Z,98037.47
2022-09-07T10:48:54.425Z,98023.88
2022-09-07T10:51:09.830Z,98041.00
2022-09-07T10:53:40.668Z,98032.25
2022-09-07T10:56:00.823Z,98026.69
2022-09-07T10:59:01.343Z,98036.72
2022-09-07T11:01:02.262Z,98021.97
2022-09-07T11:03:27.372Z,98019.53
2022-09-07T11:05:40.508Z,98026.22
2022-09-07T11:08:02.176Z,98016.59
2022-09-07T11:10:18.242Z,98014.28
2022-09-07T11:12:30.940Z,98019.59
2022-09-07T11:14:42.034Z,98018.06
2022-09-07T11:16:54.571Z,98009.66
2022-09-07T11:24:03.840Z,98012.22
2022-09-07T11:26:15.870Z,98010.25
2022-09-07T11:28:27.582Z,98007.56
2022-09-07T11:30:35.838Z,98002.13
2022-09-07T11:32:45.261Z,98006.72
2022-09-07T11:34:55.441Z,97996.97
2022-09-07T11:37:05.757Z,97993.19
2022-09-07T11:39:19.990Z,97987.69
2022-09-07T11:41:31.854Z,97985.88
2022-09-07T11:43:45.834Z,97989.69
2022-09-07T11:45:55.209Z,97984.66
2022-09-07T11:48:06.139Z,97984.03
2022-09-07T11:50:18.875Z,97981.09
2022-09-07T11:52:34.061Z,97974.63
2022-09-07T11:54:48.551Z,97979.50
2022-09-07T11:56:57.597Z,97973.41
2022-09-07T11:59:26.935Z,97963.25
2022-09-07T12:01:46.032Z,97957.47
2022-09-07T12:04:23.656Z,97960.50
2022-09-07T12:06:50.794Z,97948.75
2022-09-07T12:09:07.267Z,97955.81
2022-09-07T12:11:44.884Z,97954.09
2022-09-07T12:14:03.289Z,97942.78
2022-09-07T12:16:18.900Z,97949.22
2022-09-07T12:18:41.452Z,97951.16
2022-09-07T12:20:47.698Z,97946.94
2022-09-07T12:23:04.603Z,97945.28
2022-09-07T12:25:12.157Z,97946.47
2022-09-07T12:27:42.115Z,97938.47
2022-09-07T12:29:46.942Z,97937.44
2022-09-07T12:32:07.262Z,97931.91
2022-09-07T12:34:42.671Z,97937.09
2022-09-07T12:36:53.566Z,97929.88
2022-09-07T12:39:25.202Z,97923.84
2022-09-07T12:41:49.771Z,97927.00
2022-09-07T12:44:11.211Z,97927.22
2022-09-07T12:46:23.088Z,97921.13
2022-09-07T12:48:43.656Z,97927.84
2022-09-07T12:50:59.854Z,97922.13
2022-09-07T12:53:27.171Z,97914.75
2022-09-07T12:56:18.920Z,97927.41
2022-09-07T12:58:37.573Z,97923.50
2022-09-07T13:00:57.878Z,97916.31
2022-09-07T13:06:06.035Z,97925.19
2022-09-07T13:08:41.964Z,97923.16
2022-09-07T13:10:47.647Z,97925.81
2022-09-07T13:12:54.165Z,97913.31
2022-09-07T13:15:02.168Z,97918.97
2022-09-07T13:17:38.864Z,97913.88
2022-09-07T13:20:23.654Z,97910.03
2022-09-07T13:22:59.734Z,97905.53
2022-09-07T13:25:06.278Z,97904.88
2022-09-07T13:27:47.346Z,97903.84
2022-09-07T13:29:56.439Z,97903.41
2022-09-07T13:32:12.146Z,97895.19
2022-09-07T13:34:32.742Z,97889.28
2022-09-07T13:36:43.384Z,97887.69
2022-09-07T13:38:55.084Z,97882.91
2022-09-07T13:41:06.891Z,97885.66
2022-09-07T13:43:19.226Z,97878.19
2022-09-07T13:45:33.352Z,97879.28
2022-09-07T13:47:55.152Z,97881.13
2022-09-07T13:50:11.547Z,97880.00
2022-09-07T13:52:21.010Z,97881.84
2022-09-07T13:54:39.022Z,97877.59
2022-09-07T13:56:53.141Z,97877.53
2022-09-07T13:58:58.537Z,97868.16
2022-09-07T14:01:07.276Z,97876.66
2022-09-07T14:03:19.603Z,97878.69
2022-09-07T14:05:24.888Z,97880.84
2022-09-07T14:07:31.310Z,97873.84
2022-09-07T14:09:38.725Z,97864.28
2022-09-07T14:11:45.826Z,97857.69
2022-09-07T14:14:19.033Z,97868.19
2022-09-07T14:16:24.064Z,97863.78
2022-09-07T14:18:33.327Z,97862.84
2022-09-07T14:20:43.380Z,97877.19
2022-09-07T14:22:53.009Z,97869.00
2022-09-07T14:25:03.188Z,97862.41
2022-09-07T14:27:09.816Z,97859.41
2022-09-07T14:29:24.866Z,97849.97
2022-09-07T14:31:30.689Z,97863.56
2022-09-07T14:33:35.982Z,97853.63
2022-09-07T14:35:42.274Z,97852.19
2022-09-07T14:37:50.988Z,97846.03
2022-09-07T14:39:56.621Z,97851.88
2022-09-07T14:42:05.548Z,97850.69
2022-09-07T14:44:30.196Z,97836.44
2022-09-07T14:46:36.967Z,97835.00
2022-09-07T14:48:42.868Z,97831.72
2022-09-07T14:51:05.817Z,97829.44
2022-09-07T14:53:36.301Z,97832.53
2022-09-07T14:55:47.199Z,97824.66
2022-09-07T14:58:11.209Z,97815.06
2022-09-07T15:00:30.652Z,97809.50
2022-09-07T15:02:38.782Z,97816.75
2022-09-07T15:04:43.620Z,97819.84
2022-09-07T15:07:03.877Z,97814.78
2022-09-07T15:09:09.352Z,97812.97
2022-09-07T15:13:46.998Z,97810.28
2022-09-07T15:16:01.319Z,97806.16
2022-09-07T15:18:09.200Z,97801.19
2022-09-07T15:20:36.567Z,97788.66
2022-09-07T15:22:41.343Z,97792.19
2022-09-07T15:24:46.243Z,97789.13
2022-09-07T15:27:08.514Z,97784.41
2022-09-07T15:29:20.542Z,97789.59
2022-09-07T15:31:43.404Z,97800.53
2022-09-07T15:33:51.105Z,97792.28
2022-09-07T15:35:58.748Z,97787.78
2022-09-07T15:38:05.265Z,97786.53
2022-09-07T15:40:20.572Z,97778.06
2022-09-07T15:44:53.622Z,97791.69
2022-09-07T15:49:24.174Z,97790.47
2022-09-07T15:56:20.332Z,97784.19
2022-09-07T15:58:25.342Z,97779.81
2022-09-07T16:00:32.967Z,97776.78
2022-09-07T16:05:04.141Z,97777.06
2022-09-07T16:07:09.126Z,97780.59
2022-09-07T16:09:15.597Z,97774.16
2022-09-07T16:11:24.236Z,97778.09
2022-09-07T16:13:31.457Z,97773.91
2022-09-07T16:15:45.676Z,97770.63
2022-09-07T16:17:53.984Z,97771.72
2022-09-07T16:20:02.093Z,97764.59
2022-09-07T16:22:07.344Z,97772.75
2022-09-07T16:24:12.782Z,97763.03
2022-09-07T16:26:19.259Z,97768.97
2022-09-07T16:28:24.132Z,97766.09
2022-09-07T16:30:28.717Z,97769.06
2022-09-07T16:32:51.752Z,97769.44
2022-09-07T16:34:56.576Z,97771.78
2022-09-07T16:37:01.319Z,97768.25
2022-09-07T16:39:06.227Z,97770.88
2022-09-07T16:41:15.131Z,97762.06
2022-09-07T16:43:20.063Z,97760.13
2022-09-07T16:47:52.965Z,97753.94
2022-09-07T16:49:58.193Z,97747.13
2022-09-07T16:52:03.088Z,97747.25
2022-09-07T16:54:08.724Z,97748.38
2022-09-07T16:56:16.959Z,97746.00
2022-09-07T16:58:37.876Z,97748.16
2022-09-07T17:00:42.918Z,97740.00
2022-09-07T17:02:47.725Z,97743.06
2022-09-07T17:04:55.093Z,97744.25
2022-09-07T17:06:59.920Z,97734.28
2022-09-07T17:09:04.657Z,97735.84
2022-09-07T17:11:11.336Z,97738.06
2022-09-07T17:13:16.161Z,97744.81
2022-09-07T17:15:20.955Z,97738.16
2022-09-07T17:17:26.007Z,97741.78
2022-09-07T17:19:31.127Z,97743.81
2022-09-07T17:21:41.936Z,97738.38
2022-09-07T17:23:54.364Z,97739.94
2022-09-07T17:26:07.113Z,97735.78
2022-09-07T17:28:12.406Z,97740.66
2022-09-07T17:30:20.733Z,97736.88
2022-09-07T17:32:27.471Z,97737.25
2022-09-07T17:34:32.636Z,97738.44
2022-09-07T17:36:40.980Z,97738.78
2022-09-07T17:41:12.789Z,97742.91
2022-09-07T17:45:42.369Z,97741.03
2022-09-07T17:47:49.538Z,97734.72
2022-09-07T17:49:54.351Z,97741.09
2022-09-07T17:52:02.288Z,97744.78
2022-09-07T17:54:11.162Z,97745.31
2022-09-07T17:56:18.635Z,97751.00
2022-09-07T17:58:23.811Z,97746.84
2022-09-07T18:00:28.827Z,97743.53
2022-09-07T18:02:33.634Z,97750.59
2022-09-07T18:04:38.500Z,97752.81
2022-09-07T18:06:43.838Z,97749.97
2022-09-07T18:08:53.195Z,97754.00
2022-09-07T18:13:35.024Z,97768.41
2022-09-07T18:15:42.496Z,97780.44
2022-09-07T18:17:49.790Z,97782.47
2022-09-07T18:19:54.773Z,97776.94
2022-09-07T18:21:59.458Z,97779.28
2022-09-07T18:24:08.922Z,97779.97
2022-09-07T18:26:13.811Z,97774.63
2022-09-07T18:30:43.064Z,97781.38
2022-09-07T18:32:47.853Z,97784.25
2022-09-07T18:34:52.618Z,97781.28
2022-09-07T18:36:58.280Z,97775.13
2022-09-07T18:39:06.864Z,97777.59
2022-09-07T18:41:14.214Z,97778.97
2022-09-07T18:43:18.967Z,97781.97
2022-09-07T18:45:27.504Z,97785.16
2022-09-07T18:47:32.673Z,97783.66
2022-09-07T18:49:37.557Z,97788.16
2022-09-07T18:54:09.533Z,97788.38
2022-09-07T18:56:17.286Z,97789.75
2022-09-07T18:58:22.118Z,97800.56
2022-09-07T19:00:26.998Z,97796.94
2022-09-07T19:02:31.847Z,97801.44
2022-09-07T19:07:01.519Z,97800.44
2022-09-07T19:09:09.249Z,97803.59
2022-09-07T19:11:16.256Z,97797.09
2022-09-07T19:13:21.060Z,97794.78
2022-09-07T19:15:25.910Z,97798.44
2022-09-07T19:17:30.692Z,97799.78
2022-09-07T19:19:35.685Z,97798.44
2022-09-07T19:21:46.498Z,97789.63
2022-09-07T19:23:56.610Z,97791.47
2022-09-07T19:26:05.143Z,97783.31
2022-09-07T19:28:10.014Z,97778.94
2022-09-07T19:30:15.603Z,97774.47
2022-09-07T19:32:20.775Z,97772.13
2022-09-07T19:34:25.914Z,97770.31
2022-09-07T19:36:32.653Z,97771.63
2022-09-07T19:38:37.976Z,97779.63
2022-09-07T19:40:42.822Z,97778.66
2022-09-07T19:42:50.178Z,97777.66
2022-09-07T19:44:55.384Z,97789.13
2022-09-07T19:47:00.496Z,97781.47
2022-09-07T19:49:12.056Z,97785.44
2022-09-07T19:51:18.560Z,97772.47
2022-09-07T19:53:23.641Z,97777.78
2022-09-07T19:55:28.459Z,97784.78
2022-09-07T19:57:33.284Z,97774.47
2022-09-07T19:59:40.686Z,97772.31
2022-09-07T20:01:48.508Z,97778.28
2022-09-07T20:03:59.400Z,97775.28
2022-09-07T20:06:08.088Z,97778.22
2022-09-07T20:08:12.866Z,97777.41
2022-09-07T20:10:18.250Z,97779.38
2022-09-07T20:12:23.082Z,97779.25
2022-09-07T20:14:27.939Z,97778.41
2022-09-07T20:16:38.152Z,97779.91
2022-09-07T20:18:44.224Z,97781.38
2022-09-07T20:20:53.060Z,97782.53
2022-09-07T20:22:57.881Z,97784.38
2022-09-07T20:25:02.657Z,97772.22
2022-09-07T20:27:07.949Z,97768.06
2022-09-07T20:29:29.217Z,97772.38
2022-09-07T20:31:37.035Z,97772.03
2022-09-07T20:33:42.737Z,97771.38
2022-09-07T20:35:47.827Z,97772.75
2022-09-07T20:37:52.446Z,97767.56
2022-09-07T20:39:57.794Z,97765.09
2022-09-07T20:42:02.795Z,97773.22
2022-09-07T20:44:07.392Z,97763.41
2022-09-07T20:46:12.417Z,97769.72
2022-09-07T20:48:20.080Z,97770.38
2022-09-07T20:50:26.107Z,97775.84
2022-09-07T20:52:30.853Z,97775.69
2022-09-07T20:54:37.770Z,97772.91
2022-09-07T20:56:42.686Z,97778.38
2022-09-07T20:58:49.659Z,97779.06
2022-09-07T21:00:54.963Z,97774.25
2022-09-07T21:02:59.879Z,97778.22
2022-09-07T21:05:08.016Z,97767.97
2022-09-07T21:07:12.892Z,97772.13
2022-09-07T21:09:17.502Z,97756.94
2022-09-07T21:11:24.504Z,97754.47
2022-09-07T21:13:29.352Z,97748.47
2022-09-07T21:15:34.130Z,97748.13
2022-09-07T21:17:38.882Z,97745.47
2022-09-07T21:19:43.594Z,97742.81
2022-09-07T21:21:52.639Z,97738.31
2022-09-07T21:23:59.338Z,97741.81
2022-09-07T21:26:05.132Z,97734.81
2022-09-07T21:28:09.904Z,97747.44
2022-09-07T21:30:16.297Z,97735.97
2022-09-07T21:32:21.068Z,97736.31
2022-09-07T21:34:27.404Z,97740.31
2022-09-07T21:36:34.120Z,97736.13
2022-09-07T21:38:42.897Z,97734.16
2022-09-07T21:40:47.823Z,97736.13
2022-09-07T21:42:54.244Z,97717.53
2022-09-07T21:44:58.980Z,97722.66
2022-09-07T21:47:03.842Z,97724.66
2022-09-07T21:49:08.912Z,97724.19
2022-09-07T21:51:13.437Z,97725.31
2022-09-07T21:53:18.388Z,97732.44
2022-09-07T21:55:25.818Z,97740.22
2022-09-07T21:57:30.551Z,97739.03
2022-09-07T21:59:35.398Z,97743.16
2022-09-07T22:01:40.964Z,97744.47
2022-09-07T22:03:46.703Z,97735.28
2022-09-07T22:05:53.695Z,97734.78
2022-09-07T22:07:58.479Z,97731.44
2022-09-07T22:10:03.608Z,97731.59
2022-09-07T22:12:11.306Z,97730.59
2022-09-07T22:14:16.889Z,97742.22
2022-09-07T22:16:22.150Z,97744.06
2022-09-07T22:18:27.067Z,97744.72
2022-09-07T22:20:31.869Z,97746.41
2022-09-07T22:22:37.144Z,97731.28
2022-09-07T22:24:41.940Z,97732.78
2022-09-07T22:26:47.019Z,97725.50
2022-09-07T22:28:55.469Z,97722.66
2022-09-07T22:31:10.377Z,97720.00
2022-09-07T22:33:15.236Z,97714.88
2022-09-07T22:35:21.588Z,97711.84
2022-09-07T22:37:26.803Z,97702.00
2022-09-07T22:39:31.849Z,97702.28
2022-09-07T22:41:38.270Z,97696.94
2022-09-07T22:43:43.677Z,97694.78
2022-09-07T22:45:52.110Z,97689.78
2022-09-07T22:47:57.439Z,97684.31
2022-09-07T22:50:02.485Z,97684.84
2022-09-07T22:52:07.055Z,97683.97
2022-09-07T22:54:12.132Z,97681.88
2022-09-07T22:56:18.736Z,97679.03
2022-09-07T22:58:23.814Z,97675.56
2022-09-07T23:00:28.261Z,97669.88
2022-09-07T23:02:35.695Z,97673.53
2022-09-07T23:04:40.567Z,97669.22
2022-09-07T23:06:46.081Z,97676.50
2022-09-07T23:08:50.865Z,97676.19
2022-09-07T23:10:55.824Z,97672.38
2022-09-07T23:13:00.565Z,97673.22
2022-09-07T23:15:05.397Z,97673.72
2022-09-07T23:17:10.158Z,97673.72
2022-09-07T23:19:19.665Z,97668.25
2022-09-07T23:21:24.449Z,97673.72
2022-09-07T23:23:29.938Z,97669.09
2022-09-07T23:25:37.788Z,97664.47
2022-09-07T23:27:42.530Z,97659.16
2022-09-07T23:29:47.357Z,97658.59
2022-09-07T23:31:52.170Z,97650.63
2022-09-07T23:33:57.420Z,97648.16
2022-09-07T23:36:07.441Z,97637.34
2022-09-07T23:38:12.415Z,97644.59
2022-09-07T23:40:17.478Z,97643.25
2022-09-07T23:42:22.201Z,97646.06
2022-09-07T23:44:26.943Z,97642.72
2022-09-07T23:46:31.693Z,97641.25
2022-09-07T23:48:36.456Z,97638.41
2022-09-07T23:50:41.438Z,97635.75
2022-09-07T23:52:48.775Z,97647.06
2022-09-07T23:54:53.846Z,97640.75
2022-09-07T23:56:58.384Z,97635.75
2022-09-07T23:59:03.129Z,97639.94
